createdAt,value
2022-09-23T00:01:18.086Z,78.38
2022-09-23T00:03:48.687Z,78.50
2022-09-23T00:06:24.313Z,78.63
2022-09-23T00:08:52.607Z,78.32
2022-09-23T00:11:24.299Z,78.08
2022-09-23T00:13:57.108Z,78.07
2022-09-23T00:16:32.712Z,78.07
2022-09-23T00:19:04.278Z,78.01
2022-09-23T00:21:31.288Z,78.09
2022-09-23T00:23:58.785Z,77.85
2022-09-23T00:26:25.876Z,78.17
2022-09-23T00:28:53.216Z,78.18
2022-09-23T00:31:24.667Z,78.10
2022-09-23T00:34:01.788Z,78.16
2022-09-23T00:36:30.414Z,78.02
2022-09-23T00:38:57.891Z,78.42
2022-09-23T00:41:26.843Z,78.40
2022-09-23T00:43:58.990Z,78.58
2022-09-23T00:46:42.175Z,78.57
2022-09-23T00:49:23.615Z,78.61
2022-09-23T00:52:09.883Z,78.55
2022-09-23T00:54:37.906Z,78.86
2022-09-23T00:57:06.040Z,78.60
2022-09-23T00:59:34.884Z,78.79
2022-09-23T01:02:02.926Z,78.81
2022-09-23T01:04:30.549Z,78.78
2022-09-23T01:06:57.578Z,78.82
2022-09-23T01:09:25.375Z,78.75
2022-09-23T01:12:20.007Z,78.78
2022-09-23T01:15:18.552Z,79.03
2022-09-23T01:18:07.391Z,78.97
2022-09-23T01:20:59.336Z,78.85
2022-09-23T01:24:11.529Z,78.76
2022-09-23T01:27:22.090Z,78.91
2022-09-23T01:30:40.985Z,79.06
2022-09-23T01:33:24.247Z,79.19
2022-09-23T01:36:30.820Z,79.32
2022-09-23T01:39:16.954Z,79.28
2022-09-23T01:42:13.828Z,79.58
2022-09-23T01:44:53.075Z,79.34
2022-09-23T01:47:39.798Z,79.57
2022-09-23T01:50:35.239Z,79.80
2022-09-23T01:53:14.668Z,80.25
2022-09-23T01:55:50.415Z,80.25
2022-09-23T01:58:29.208Z,80.46
2022-09-23T02:01:05.044Z,80.55
2022-09-23T02:03:52.259Z,80.81
2022-09-23T02:06:32.135Z,81.17
2022-09-23T02:09:13.940Z,81.32
2022-09-23T02:11:48.096Z,81.51
2022-09-23T02:14:33.339Z,81.52
2022-09-23T02:17:13.041Z,81.76
2022-09-23T02:19:50.663Z,81.75
2022-09-23T02:22:26.487Z,81.87
2022-09-23T02:24:57.462Z,82.06
2022-09-23T02:27:35.151Z,82.02
2022-09-23T02:30:22.601Z,82.43
2022-09-23T02:33:46.309Z,82.47
2022-09-23T02:36:21.686Z,82.46
2022-09-23T02:38:59.150Z,82.75
2022-09-23T02:41:42.656Z,82.74
2022-09-23T02:44:16.677Z,83.02
2022-09-23T02:46:44.318Z,83.03
2022-09-23T02:49:29.503Z,83.33
2022-09-23T02:52:04.849Z,83.07
2022-09-23T02:54:33.717Z,83.19
2022-09-23T02:57:06.499Z,83.55
2022-09-23T02:59:37.089Z,83.35
2022-09-23T03:02:55.951Z,83.26
2022-09-23T03:05:31.585Z,83.08
2022-09-23T03:08:39.945Z,83.05
2022-09-23T03:11:16.996Z,83.05
2022-09-23T03:14:16.917Z,82.96
2022-09-23T03:16:56.744Z,82.93
2022-09-23T03:19:41.399Z,82.79
2022-09-23T03:22:21.335Z,82.89
2022-09-23T03:24:54.059Z,82.68
2022-09-23T03:27:29.931Z,82.74
2022-09-23T03:29:58.495Z,82.75
2022-09-23T03:32:29.250Z,82.60
2022-09-23T03:35:01.587Z,82.71
2022-09-23T03:37:44.749Z,82.61
2022-09-23T03:40:31.965Z,83.09
2022-09-23T03:43:02.555Z,82.72
2022-09-23T03:45:34.385Z,83.06
2022-09-23T03:48:01.868Z,83.13
2022-09-23T03:50:29.428Z,83.19
2022-09-23T03:52:56.727Z,83.34
2022-09-23T03:55:23.834Z,83.17
2022-09-23T03:57:50.896Z,83.34
2022-09-23T04:00:19.000Z,83.51
2022-09-23T04:02:46.012Z,83.42
2022-09-23T04:05:14.126Z,83.47
2022-09-23T04:07:44.501Z,83.44
2022-09-23T04:10:11.753Z,83.47
2022-09-23T04:12:38.723Z,83.38
2022-09-23T04:15:06.714Z,83.28
2022-09-23T04:17:34.727Z,83.58
2022-09-23T04:20:02.563Z,83.44
2022-09-23T04:22:29.689Z,83.50
2022-09-23T04:24:56.991Z,83.51
2022-09-23T04:27:24.017Z,83.46
2022-09-23T04:29:51.029Z,83.44
2022-09-23T04:32:18.063Z,83.47
2022-09-23T04:34:45.777Z,83.71
2022-09-23T04:37:12.857Z,83.63
2022-09-23T04:39:39.838Z,83.73
2022-09-23T04:42:07.122Z,83.74
2022-09-23T04:44:34.895Z,83.67
2022-09-23T04:47:02.625Z,83.68
2022-09-23T04:49:33.641Z,83.86
2022-09-23T04:52:01.722Z,83.89
2022-09-23T04:54:29.081Z,84.24
2022-09-23T04:57:03.125Z,85.63
2022-09-23T04:59:32.080Z,86.24
2022-09-23T05:02:01.226Z,85.63
2022-09-23T05:04:28.229Z,84.99
2022-09-23T05:06:57.439Z,84.81
2022-09-23T05:09:26.396Z,84.50
2022-09-23T05:11:53.528Z,84.56
2022-09-23T05:14:20.654Z,84.37
2022-09-23T05:16:47.608Z,84.46
2022-09-23T05:19:15.435Z,84.48
2022-09-23T05:21:42.346Z,84.65
2022-09-23T05:24:10.112Z,84.72
2022-09-23T05:26:37.076Z,84.71
2022-09-23T05:29:05.013Z,84.99
2022-09-23T05:31:32.007Z,84.97
2022-09-23T05:34:03.456Z,84.80
2022-09-23T05:36:37.872Z,84.79
2022-09-23T05:39:30.711Z,84.81
2022-09-23T05:41:59.987Z,84.75
2022-09-23T05:44:26.977Z,84.80
2022-09-23T05:46:54.078Z,84.75
2022-09-23T05:49:29.558Z,84.70
2022-09-23T05:52:04.792Z,84.60
2022-09-23T05:54:31.714Z,84.58
2022-09-23T05:57:00.323Z,84.64
2022-09-23T05:59:29.780Z,84.22
2022-09-23T06:01:56.937Z,84.23
2022-09-23T06:04:23.856Z,84.14
2022-09-23T06:06:50.724Z,84.29
2022-09-23T06:09:17.708Z,84.03
2022-09-23T06:11:44.793Z,84.10
2022-09-23T06:14:14.700Z,84.04
2022-09-23T06:16:43.003Z,83.94
2022-09-23T06:19:10.448Z,83.87
2022-09-23T06:21:40.339Z,83.89
2022-09-23T06:24:14.205Z,83.94
2022-09-23T06:26:42.688Z,83.87
2022-09-23T06:29:11.830Z,83.91
2022-09-23T06:31:40.686Z,83.88
2022-09-23T06:34:13.523Z,83.88
2022-09-23T06:36:45.524Z,83.55
2022-09-23T06:39:16.510Z,83.23
2022-09-23T06:41:45.427Z,83.22
2022-09-23T06:44:14.360Z,83.30
2022-09-23T06:46:41.636Z,83.05
2022-09-23T06:49:08.657Z,82.90
2022-09-23T06:51:35.638Z,82.71
2022-09-23T06:54:02.741Z,82.64
2022-09-23T06:56:31.574Z,82.48
2022-09-23T06:59:01.732Z,82.25
2022-09-23T07:01:28.753Z,82.35
2022-09-23T07:03:55.796Z,81.80
2022-09-23T07:06:22.990Z,81.77
2022-09-23T07:08:51.120Z,81.78
2022-09-23T07:11:22.282Z,81.36
2022-09-23T07:13:49.708Z,81.17
2022-09-23T07:16:16.691Z,81.40
2022-09-23T07:18:45.627Z,81.00
2022-09-23T07:21:19.305Z,80.84
2022-09-23T07:23:50.086Z,80.83
2022-09-23T07:26:19.165Z,80.51
2022-09-23T07:28:46.563Z,80.18
2022-09-23T07:31:26.076Z,80.13
2022-09-23T07:33:58.121Z,79.62
2022-09-23T07:36:27.912Z,79.51
2022-09-23T07:39:00.561Z,79.14
2022-09-23T07:41:28.942Z,79.18
2022-09-23T07:43:58.993Z,78.81
2022-09-23T07:46:33.909Z,78.33
2022-09-23T07:49:03.181Z,77.95
2022-09-23T07:51:37.205Z,77.62
2022-09-23T07:54:14.364Z,76.71
2022-09-23T07:56:42.656Z,76.41
2022-09-23T07:59:18.102Z,75.81
2022-09-23T08:01:52.616Z,75.40
2022-09-23T08:04:30.821Z,74.52
2022-09-23T08:07:04.764Z,74.29
2022-09-23T08:09:41.242Z,74.12
2022-09-23T08:12:17.554Z,73.25
2022-09-23T08:14:44.844Z,72.47
2022-09-23T08:17:14.470Z,71.67
2022-09-23T08:19:41.615Z,71.54
2022-09-23T08:22:08.599Z,71.52
2022-09-23T08:24:35.686Z,70.86
2022-09-23T08:27:02.699Z,70.94
2022-09-23T08:29:29.871Z,70.78
2022-09-23T08:31:57.031Z,70.97
2022-09-23T08:34:28.068Z,69.87
2022-09-23T08:36:55.079Z,70.11
2022-09-23T08:39:23.085Z,70.19
2022-09-23T08:42:01.995Z,70.59
2022-09-23T08:44:42.777Z,70.49
2022-09-23T08:47:23.314Z,70.78
2022-09-23T08:49:57.256Z,70.26
2022-09-23T08:52:31.900Z,69.52
2022-09-23T08:55:01.825Z,69.56
2022-09-23T08:58:23.312Z,69.55
2022-09-23T09:00:54.201Z,69.51
2022-09-23T09:03:29.724Z,69.64
2022-09-23T09:05:58.889Z,69.53
2022-09-23T09:08:35.116Z,69.74
2022-09-23T09:11:03.505Z,69.44
2022-09-23T09:13:47.416Z,68.42
2022-09-23T09:16:58.486Z,68.73
2022-09-23T09:19:55.291Z,68.46
2022-09-23T09:22:54.980Z,68.25
2022-09-23T09:25:37.092Z,68.01
2022-09-23T09:28:17.379Z,67.54
2022-09-23T09:30:48.849Z,66.89
2022-09-23T09:33:23.860Z,66.40
2022-09-23T09:36:09.006Z,66.02
2022-09-23T09:38:37.070Z,66.31
2022-09-23T09:41:18.163Z,65.87
2022-09-23T09:43:53.424Z,65.20
2022-09-23T09:47:28.349Z,65.70
2022-09-23T09:50:11.817Z,64.66
2022-09-23T09:52:40.902Z,64.46
2022-09-23T09:55:13.866Z,63.83
2022-09-23T09:58:00.120Z,63.57
2022-09-23T10:00:27.631Z,62.98
2022-09-23T10:03:14.099Z,63.01
2022-09-23T10:05:44.816Z,62.38
2022-09-23T10:08:38.998Z,62.37
2022-09-23T10:11:18.906Z,62.45
2022-09-23T10:14:09.913Z,62.43
2022-09-23T10:16:37.296Z,62.41
2022-09-23T10:19:27.852Z,60.97
2022-09-23T10:22:00.180Z,61.42
2022-09-23T10:24:36.623Z,60.91
2022-09-23T10:27:11.952Z,60.96
2022-09-23T10:29:47.824Z,60.18
2022-09-23T10:32:32.357Z,59.66
2022-09-23T10:35:13.321Z,60.67
2022-09-23T10:37:49.327Z,61.00
2022-09-23T10:40:57.637Z,60.31
2022-09-23T10:44:49.238Z,59.90
2022-09-23T10:47:36.801Z,60.25
2022-09-23T10:50:19.960Z,59.86
2022-09-23T10:53:18.233Z,59.47
2022-09-23T10:56:34.257Z,59.78
2022-09-23T10:59:21.603Z,58.51
2022-09-23T11:02:06.584Z,58.40
2022-09-23T11:04:55.238Z,58.60
2022-09-23T11:08:02.392Z,57.99
2022-09-23T11:11:03.902Z,58.70
2022-09-23T11:13:55.629Z,58.36
2022-09-23T11:16:50.893Z,58.42
2022-09-23T11:19:50.863Z,57.92
2022-09-23T11:22:53.247Z,57.94
2022-09-23T11:25:42.171Z,58.28
2022-09-23T11:28:21.935Z,58.35
2022-09-23T11:31:10.158Z,57.93
2022-09-23T11:34:26.040Z,57.91
2022-09-23T11:37:05.167Z,57.50
2022-09-23T11:39:51.349Z,57.20
2022-09-23T11:42:26.162Z,56.98
2022-09-23T11:45:14.991Z,57.45
2022-09-23T11:48:21.891Z,56.93
2022-09-23T11:51:25.725Z,57.02
2022-09-23T11:54:20.922Z,56.44
2022-09-23T11:57:01.278Z,55.80
2022-09-23T11:59:55.126Z,55.83
2022-09-23T12:02:40.639Z,55.36
2022-09-23T12:05:22.715Z,55.52
2022-09-23T12:08:17.928Z,54.49
2022-09-23T12:10:57.997Z,54.72
2022-09-23T12:13:39.279Z,55.07
2022-09-23T12:16:59.146Z,55.08
2022-09-23T12:19:38.565Z,54.83
2022-09-23T12:22:24.756Z,54.20
2022-09-23T12:25:10.330Z,53.85
2022-09-23T12:27:46.619Z,53.84
2022-09-23T12:30:19.028Z,53.44
2022-09-23T12:32:47.151Z,53.60
2022-09-23T12:35:41.841Z,51.68
2022-09-23T12:38:33.597Z,51.30
2022-09-23T12:41:01.537Z,51.41
2022-09-23T12:43:34.491Z,51.26
2022-09-23T12:46:27.245Z,51.23
2022-09-23T12:49:03.146Z,51.12
2022-09-23T12:51:36.267Z,50.21
2022-09-23T12:54:15.243Z,48.91
2022-09-23T12:56:59.600Z,49.24
2022-09-23T12:59:29.771Z,49.93
2022-09-23T13:02:26.257Z,49.93
2022-09-23T13:05:28.152Z,49.81
2022-09-23T13:08:08.251Z,50.01
2022-09-23T13:10:46.048Z,50.05
2022-09-23T13:13:27.529Z,50.37
2022-09-23T13:15:55.163Z,50.51
2022-09-23T13:18:22.123Z,50.87
2022-09-23T13:20:54.911Z,50.93
2022-09-23T13:23:31.322Z,51.14
2022-09-23T13:26:12.596Z,51.85
2022-09-23T13:28:55.791Z,50.78
2022-09-23T13:31:23.131Z,50.78
2022-09-23T13:34:04.286Z,51.02
2022-09-23T13:36:45.148Z,50.30
2022-09-23T13:39:26.099Z,50.12
2022-09-23T13:42:02.975Z,49.90
2022-09-23T13:44:30.829Z,50.24
2022-09-23T13:47:03.261Z,50.35
2022-09-23T13:49:36.431Z,50.27
2022-09-23T13:52:04.124Z,50.51
2022-09-23T13:54:37.818Z,49.74
2022-09-23T13:57:05.906Z,49.24
2022-09-23T13:59:42.369Z,49.35
2022-09-23T14:02:20.303Z,49.55
2022-09-23T14:04:47.436Z,48.10
2022-09-23T14:07:19.174Z,48.67
2022-09-23T14:09:52.280Z,47.57
2022-09-23T14:12:22.203Z,47.94
2022-09-23T14:14:53.108Z,48.31
2022-09-23T14:17:25.661Z,48.64
2022-09-23T14:19:52.785Z,48.90
2022-09-23T14:22:30.395Z,48.61
2022-09-23T14:24:59.044Z,48.66
2022-09-23T14:27:33.448Z,48.11
2022-09-23T14:30:03.502Z,47.93
2022-09-23T14:32:32.252Z,48.46
2022-09-23T14:35:05.417Z,49.54
2022-09-23T14:37:56.697Z,49.66
2022-09-23T14:40:31.817Z,49.91
2022-09-23T14:43:06.297Z,49.67
2022-09-23T14:45:40.618Z,49.81
2022-09-23T14:48:16.381Z,50.25
2022-09-23T14:51:07.656Z,50.46
2022-09-23T14:53:52.563Z,50.86
2022-09-23T14:56:22.992Z,51.11
2022-09-23T14:59:00.631Z,50.91
2022-09-23T15:01:31.446Z,50.95
2022-09-23T15:04:17.478Z,51.28
2022-09-23T15:06:58.496Z,51.21
2022-09-23T15:09:39.397Z,51.27
2022-09-23T15:12:14.640Z,50.99
2022-09-23T15:14:49.412Z,51.82
2022-09-23T15:17:34.648Z,51.74
2022-09-23T15:20:20.304Z,51.59
2022-09-23T15:22:54.059Z,51.92
2022-09-23T15:25:31.121Z,52.29
2022-09-23T15:28:00.891Z,52.11
2022-09-23T15:30:28.677Z,52.54
2022-09-23T15:32:56.056Z,52.85
2022-09-23T15:35:26.612Z,53.05
2022-09-23T15:37:58.820Z,53.53
2022-09-23T15:40:32.652Z,53.51
2022-09-23T15:43:20.930Z,53.45
2022-09-23T15:45:57.133Z,53.74
2022-09-23T15:48:39.333Z,54.27
2022-09-23T15:51:09.752Z,54.52
2022-09-23T15:53:38.800Z,54.41
2022-09-23T15:56:13.308Z,54.71
2022-09-23T15:58:40.293Z,54.87
2022-09-23T16:01:25.224Z,55.06
2022-09-23T16:03:52.383Z,55.39
2022-09-23T16:06:20.277Z,55.43
2022-09-23T16:08:48.921Z,55.85
2022-09-23T16:11:25.747Z,56.12
2022-09-23T16:13:54.857Z,56.40
2022-09-23T16:16:22.056Z,56.79
2022-09-23T16:18:51.389Z,57.34
2022-09-23T16:21:23.924Z,57.68
2022-09-23T16:23:53.386Z,57.89
2022-09-23T16:26:29.578Z,58.45
2022-09-23T16:28:58.956Z,58.63
2022-09-23T16:31:31.414Z,58.91
2022-09-23T16:34:02.105Z,58.97
2022-09-23T16:36:39.241Z,59.50
2022-09-23T16:39:11.458Z,59.37
2022-09-23T16:41:38.645Z,59.38
2022-09-23T16:44:09.302Z,59.73
2022-09-23T16:46:36.755Z,59.66
2022-09-23T16:49:04.954Z,60.04
2022-09-23T16:51:40.419Z,60.23
2022-09-23T16:54:13.216Z,60.42
2022-09-23T16:56:45.215Z,60.50
2022-09-23T16:59:14.517Z,60.71
2022-09-23T17:02:00.871Z,60.81
2022-09-23T17:04:28.274Z,60.90
2022-09-23T17:06:56.041Z,61.11
2022-09-23T17:09:32.197Z,61.27
2022-09-23T17:12:13.743Z,61.33
2022-09-23T17:14:41.750Z,61.45
2022-09-23T17:17:09.759Z,61.66
2022-09-23T17:19:38.412Z,61.78
2022-09-23T17:22:05.388Z,61.93
2022-09-23T17:24:32.480Z,62.02
2022-09-23T17:26:59.483Z,62.16
2022-09-23T17:29:26.909Z,62.28
2022-09-23T17:31:54.370Z,62.41
2022-09-23T17:34:21.639Z,62.62
2022-09-23T17:36:49.609Z,62.87
2022-09-23T17:39:17.544Z,62.75
2022-09-23T17:41:45.672Z,63.55
2022-09-23T17:44:14.375Z,63.84
2022-09-23T17:46:42.106Z,64.19
2022-09-23T17:49:10.001Z,64.65
2022-09-23T17:51:37.284Z,65.16
2022-09-23T17:54:04.414Z,65.69
2022-09-23T17:56:31.475Z,66.18
2022-09-23T17:59:02.291Z,66.56
2022-09-23T18:01:29.910Z,67.12
2022-09-23T18:04:00.608Z,67.95
2022-09-23T18:06:33.630Z,68.14
2022-09-23T18:09:04.159Z,69.11
2022-09-23T18:11:36.024Z,69.85
2022-09-23T18:14:13.019Z,70.44
2022-09-23T18:16:42.074Z,71.15
2022-09-23T18:19:14.771Z,71.76
2022-09-23T18:21:52.062Z,71.91
2022-09-23T18:24:35.072Z,72.64
2022-09-23T18:27:02.273Z,72.80
2022-09-23T18:29:29.739Z,73.24
2022-09-23T18:31:56.881Z,73.27
2022-09-23T18:34:25.489Z,73.53
2022-09-23T18:36:55.933Z,73.75
2022-09-23T18:39:23.061Z,74.04
2022-09-23T18:41:50.298Z,74.04
2022-09-23T18:44:17.845Z,74.30
2022-09-23T18:46:44.854Z,74.59
2022-09-23T18:49:31.036Z,74.73
2022-09-23T18:51:58.784Z,74.89
2022-09-23T18:54:28.856Z,75.04
2022-09-23T18:56:56.774Z,75.09
2022-09-23T18:59:28.930Z,75.29
2022-09-23T19:01:57.389Z,75.44
2022-09-23T19:04:27.289Z,75.75
2022-09-23T19:06:56.594Z,75.60
2022-09-23T19:09:24.528Z,75.66
2022-09-23T19:11:52.652Z,75.78
2022-09-23T19:14:20.262Z,75.82
2022-09-23T19:16:51.013Z,75.78
2022-09-23T19:19:18.152Z,76.02
2022-09-23T19:21:45.307Z,76.22
2022-09-23T19:24:15.752Z,76.53
2022-09-23T19:26:44.028Z,76.61
2022-09-23T19:29:16.680Z,76.89
2022-09-23T19:31:44.145Z,76.98
2022-09-23T19:34:17.707Z,77.35
2022-09-23T19:36:47.192Z,77.45
2022-09-23T19:39:23.460Z,77.54
2022-09-23T19:41:52.706Z,77.86
2022-09-23T19:44:20.215Z,77.96
2022-09-23T19:46:55.040Z,78.09
2022-09-23T19:49:24.571Z,78.02
2022-09-23T19:51:55.123Z,77.98
2022-09-23T19:54:22.373Z,78.45
2022-09-23T19:56:49.916Z,78.70
2022-09-23T19:59:19.185Z,79.04
2022-09-23T20:01:48.019Z,79.23
2022-09-23T20:04:16.798Z,79.22
2022-09-23T20:06:45.827Z,79.15
2022-09-23T20:09:12.960Z,79.28
2022-09-23T20:11:42.829Z,79.37
2022-09-23T20:14:10.842Z,79.66
2022-09-23T20:16:37.974Z,79.80
2022-09-23T20:19:05.922Z,79.78
2022-09-23T20:21:33.819Z,80.12
2022-09-23T20:24:04.394Z,79.88
2022-09-23T20:26:50.268Z,80.16
2022-09-23T20:29:17.388Z,80.28
2022-09-23T20:31:44.510Z,80.32
2022-09-23T20:34:12.268Z,80.36
2022-09-23T20:36:41.606Z,80.87
2022-09-23T20:39:10.319Z,80.64
2022-09-23T20:41:39.272Z,80.31
2022-09-23T20:44:12.933Z,80.43
2022-09-23T20:46:48.240Z,80.50
2022-09-23T20:49:17.764Z,80.62
2022-09-23T20:51:47.589Z,80.85
2022-09-23T20:54:21.067Z,81.05
2022-09-23T20:56:48.226Z,81.03
2022-09-23T20:59:17.532Z,81.11
2022-09-23T21:01:45.353Z,81.21
2022-09-23T21:04:12.461Z,81.25
2022-09-23T21:06:39.752Z,81.55
2022-09-23T21:09:07.208Z,81.82
2022-09-23T21:11:35.226Z,82.12
2022-09-23T21:14:02.681Z,82.33
2022-09-23T21:16:30.542Z,82.46
2022-09-23T21:18:58.324Z,82.54
2022-09-23T21:21:26.198Z,82.64
2022-09-23T21:23:56.458Z,82.78
2022-09-23T21:26:28.178Z,83.01
2022-09-23T21:29:00.797Z,83.17
2022-09-23T21:31:35.885Z,83.44
2022-09-23T21:34:09.238Z,83.65
2022-09-23T21:36:46.266Z,83.85
2022-09-23T21:39:13.436Z,84.21
2022-09-23T21:41:40.506Z,84.32
2022-09-23T21:44:08.554Z,84.58
2022-09-23T21:46:37.010Z,84.71
2022-09-23T21:49:05.278Z,84.81
2022-09-23T21:51:40.781Z,84.94
2022-09-23T21:54:15.625Z,85.01
2022-09-23T21:56:44.715Z,85.25
2022-09-23T21:59:12.375Z,85.47
2022-09-23T22:01:44.858Z,85.55
2022-09-23T22:04:18.835Z,85.59
2022-09-23T22:06:46.690Z,85.89
2022-09-23T22:09:18.251Z,85.88
2022-09-23T22:12:04.872Z,85.99
2022-09-23T22:14:31.913Z,86.03
2022-09-23T22:17:02.701Z,86.15
2022-09-23T22:19:35.568Z,86.28
2022-09-23T22:22:09.713Z,86.35
2022-09-23T22:24:36.770Z,86.50
2022-09-23T22:27:07.371Z,86.47
2022-09-23T22:29:53.312Z,86.55
2022-09-23T22:32:36.061Z,86.67
2022-09-23T22:35:05.111Z,86.90
2022-09-23T22:37:34.744Z,86.96
2022-09-23T22:40:15.260Z,86.78
2022-09-23T22:42:43.608Z,86.62
2022-09-23T22:45:13.570Z,86.67
2022-09-23T22:47:44.954Z,86.52
2022-09-23T22:50:14.190Z,86.46
2022-09-23T22:52:41.403Z,86.48
2022-09-23T22:55:14.399Z,86.29
2022-09-23T22:57:41.546Z,86.34
2022-09-23T23:00:09.938Z,86.19
2022-09-23T23:02:36.978Z,86.47
2022-09-23T23:05:04.263Z,86.33
2022-09-23T23:07:32.083Z,86.56
2022-09-23T23:09:59.057Z,86.57
2022-09-23T23:12:26.069Z,86.84
2022-09-23T23:14:53.109Z,86.75
2022-09-23T23:17:20.144Z,86.97
2022-09-23T23:19:47.444Z,87.38
2022-09-23T23:22:14.498Z,87.56
2022-09-23T23:24:41.564Z,87.83
2022-09-23T23:27:09.659Z,87.87
2022-09-23T23:29:36.676Z,88.01
2022-09-23T23:32:05.926Z,88.34
2022-09-23T23:34:32.870Z,88.29
2022-09-23T23:37:00.248Z,88.56
2022-09-23T23:39:27.454Z,88.79
2022-09-23T23:41:57.212Z,88.83
2022-09-23T23:44:26.518Z,88.98
2022-09-23T23:46:54.849Z,89.12
2022-09-23T23:49:22.300Z,89.07
2022-09-23T23:51:49.601Z,89.34
2022-09-23T23:54:17.788Z,89.34
2022-09-23T23:56:45.141Z,89.44
2022-09-23T23:59:12.597Z,89.46
